sensor_id;sensor_type;location;lat;lon;timestamp;P1;durP1;ratioP1;P2;durP2;ratioP2
8656;SDS011;4366;50.764;7.184;2023-08-06T00:00:37;2.20;;;2.00;;
8656;SDS011;4366;50.764;7.184;2023-08-06T00:05:41;2.30;;;2.10;;
8656;SDS011;4366;50.764;7.184;2023-08-06T00:10:44;2.10;;;1.93;;
8656;SDS011;4366;50.764;7.184;2023-08-06T00:15:45;2.20;;;2.00;;
8656;SDS011;4366;50.764;7.184;2023-08-06T00:20:47;2.43;;;2.23;;
8656;SDS011;4366;50.764;7.184;2023-08-06T00:25:49;2.20;;;2.10;;
8656;SDS011;4366;50.764;7.184;2023-08-06T00:30:54;2.00;;;1.80;;
8656;SDS011;4366;50.764;7.184;2023-08-06T00:35:59;2.00;;;1.90;;
8656;SDS011;4366;50.764;7.184;2023-08-06T00:41:01;2.20;;;2.00;;
8656;SDS011;4366;50.764;7.184;2023-08-06T00:46:02;2.10;;;1.83;;
8656;SDS011;4366;50.764;7.184;2023-08-06T00:51:04;2.00;;;1.90;;
8656;SDS011;4366;50.764;7.184;2023-08-06T00:56:06;2.27;;;2.07;;
8656;SDS011;4366;50.764;7.184;2023-08-06T01:01:09;1.90;;;1.80;;
8656;SDS011;4366;50.764;7.184;2023-08-06T01:06:11;2.37;;;2.17;;
8656;SDS011;4366;50.764;7.184;2023-08-06T01:16:44;3.03;;;2.17;;
8656;SDS011;4366;50.764;7.184;2023-08-06T01:21:46;1.87;;;1.77;;
8656;SDS011;4366;50.764;7.184;2023-08-06T01:32:14;2.30;;;1.70;;
8656;SDS011;4366;50.764;7.184;2023-08-06T01:37:16;2.13;;;1.70;;
8656;SDS011;4366;50.764;7.184;2023-08-06T01:42:17;1.90;;;1.80;;
8656;SDS011;4366;50.764;7.184;2023-08-06T01:47:21;1.80;;;1.70;;
8656;SDS011;4366;50.764;7.184;2023-08-06T01:52:23;2.03;;;1.83;;
8656;SDS011;4366;50.764;7.184;2023-08-06T01:57:24;1.93;;;1.70;;
8656;SDS011;4366;50.764;7.184;2023-08-06T02:02:26;1.80;;;1.70;;
8656;SDS011;4366;50.764;7.184;2023-08-06T02:07:28;1.83;;;1.73;;
8656;SDS011;4366;50.764;7.184;2023-08-06T02:12:31;1.90;;;1.80;;
8656;SDS011;4366;50.764;7.184;2023-08-06T02:17:32;1.63;;;1.53;;
8656;SDS011;4366;50.764;7.184;2023-08-06T02:22:34;2.10;;;1.90;;
8656;SDS011;4366;50.764;7.184;2023-08-06T02:27:37;1.60;;;1.50;;
8656;SDS011;4366;50.764;7.184;2023-08-06T02:32:39;2.93;;;2.03;;
8656;SDS011;4366;50.764;7.184;2023-08-06T02:37:41;2.23;;;1.87;;
8656;SDS011;4366;50.764;7.184;2023-08-06T02:42:43;1.67;;;1.57;;
8656;SDS011;4366;50.764;7.184;2023-08-06T02:47:45;2.00;;;1.83;;
8656;SDS011;4366;50.764;7.184;2023-08-06T02:52:47;2.30;;;2.10;;
8656;SDS011;4366;50.764;7.184;2023-08-06T02:57:50;2.03;;;1.87;;
8656;SDS011;4366;50.764;7.184;2023-08-06T03:02:52;2.43;;;2.00;;
8656;SDS011;4366;50.764;7.184;2023-08-06T03:08:08;2.17;;;1.83;;
8656;SDS011;4366;50.764;7.184;2023-08-06T03:13:11;2.27;;;1.97;;
8656;SDS011;4366;50.764;7.184;2023-08-06T03:18:14;3.17;;;2.03;;
8656;SDS011;4366;50.764;7.184;2023-08-06T03:23:17;2.07;;;1.87;;
8656;SDS011;4366;50.764;7.184;2023-08-06T03:28:20;2.93;;;1.90;;
8656;SDS011;4366;50.764;7.184;2023-08-06T03:33:22;1.80;;;1.70;;
8656;SDS011;4366;50.764;7.184;2023-08-06T03:38:24;2.17;;;1.97;;
8656;SDS011;4366;50.764;7.184;2023-08-06T03:43:28;2.47;;;1.93;;
8656;SDS011;4366;50.764;7.184;2023-08-06T03:48:30;1.70;;;1.60;;
8656;SDS011;4366;50.764;7.184;2023-08-06T03:53:32;2.30;;;1.90;;
8656;SDS011;4366;50.764;7.184;2023-08-06T03:58:34;2.00;;;1.90;;
8656;SDS011;4366;50.764;7.184;2023-08-06T04:03:36;1.63;;;1.53;;
8656;SDS011;4366;50.764;7.184;2023-08-06T04:08:38;1.87;;;1.73;;
8656;SDS011;4366;50.764;7.184;2023-08-06T04:13:42;3.37;;;1.60;;
8656;SDS011;4366;50.764;7.184;2023-08-06T04:18:45;1.73;;;1.63;;
8656;SDS011;4366;50.764;7.184;2023-08-06T04:23:47;1.67;;;1.57;;
8656;SDS011;4366;50.764;7.184;2023-08-06T04:28:49;1.83;;;1.73;;
8656;SDS011;4366;50.764;7.184;2023-08-06T04:33:50;1.53;;;1.43;;
8656;SDS011;4366;50.764;7.184;2023-08-06T04:38:52;1.40;;;1.30;;
8656;SDS011;4366;50.764;7.184;2023-08-06T04:43:54;1.50;;;1.47;;
8656;SDS011;4366;50.764;7.184;2023-08-06T04:48:57;1.43;;;1.30;;
8656;SDS011;4366;50.764;7.184;2023-08-06T04:53:58;1.77;;;1.67;;
8656;SDS011;4366;50.764;7.184;2023-08-06T04:59:00;1.27;;;1.20;;
8656;SDS011;4366;50.764;7.184;2023-08-06T05:04:02;1.47;;;1.10;;
8656;SDS011;4366;50.764;7.184;2023-08-06T05:09:04;1.10;;;1.10;;
8656;SDS011;4366;50.764;7.184;2023-08-06T05:14:07;1.10;;;1.00;;
8656;SDS011;4366;50.764;7.184;2023-08-06T05:19:08;0.80;;;0.80;;
8656;SDS011;4366;50.764;7.184;2023-08-06T05:24:10;1.47;;;1.10;;
8656;SDS011;4366;50.764;7.184;2023-08-06T05:29:13;5.90;;;1.30;;
8656;SDS011;4366;50.764;7.184;2023-08-06T05:34:14;1.30;;;0.93;;
8656;SDS011;4366;50.764;7.184;2023-08-06T05:39:16;0.87;;;0.87;;
8656;SDS011;4366;50.764;7.184;2023-08-06T05:44:18;0.80;;;0.80;;
8656;SDS011;4366;50.764;7.184;2023-08-06T05:49:19;0.77;;;0.77;;
8656;SDS011;4366;50.764;7.184;2023-08-06T05:54:21;0.93;;;0.87;;
8656;SDS011;4366;50.764;7.184;2023-08-06T05:59:23;0.73;;;0.73;;
8656;SDS011;4366;50.764;7.184;2023-08-06T06:04:25;1.37;;;1.00;;
8656;SDS011;4366;50.764;7.184;2023-08-06T06:09:26;1.00;;;0.90;;
8656;SDS011;4366;50.764;7.184;2023-08-06T06:14:28;0.90;;;0.90;;
8656;SDS011;4366;50.764;7.184;2023-08-06T06:19:30;0.83;;;0.83;;
8656;SDS011;4366;50.764;7.184;2023-08-06T06:24:31;2.00;;;1.20;;
8656;SDS011;4366;50.764;7.184;2023-08-06T06:29:33;0.90;;;0.90;;
8656;SDS011;4366;50.764;7.184;2023-08-06T06:34:35;2.03;;;1.13;;
8656;SDS011;4366;50.764;7.184;2023-08-06T06:39:36;0.90;;;0.90;;
8656;SDS011;4366;50.764;7.184;2023-08-06T06:44:38;0.90;;;0.90;;
8656;SDS011;4366;50.764;7.184;2023-08-06T06:49:40;0.80;;;0.80;;
8656;SDS011;4366;50.764;7.184;2023-08-06T06:54:41;0.80;;;0.80;;
8656;SDS011;4366;50.764;7.184;2023-08-06T06:59:44;0.87;;;0.87;;
8656;SDS011;4366;50.764;7.184;2023-08-06T07:04:45;0.63;;;0.63;;
8656;SDS011;4366;50.764;7.184;2023-08-06T07:09:47;0.77;;;0.77;;
8656;SDS011;4366;50.764;7.184;2023-08-06T07:14:49;0.70;;;0.70;;
8656;SDS011;4366;50.764;7.184;2023-08-06T07:19:50;0.80;;;0.80;;
8656;SDS011;4366;50.764;7.184;2023-08-06T07:24:52;0.67;;;0.67;;
8656;SDS011;4366;50.764;7.184;2023-08-06T07:29:54;0.60;;;0.60;;
8656;SDS011;4366;50.764;7.184;2023-08-06T07:34:56;0.60;;;0.60;;
8656;SDS011;4366;50.764;7.184;2023-08-06T07:40:01;0.70;;;0.70;;
8656;SDS011;4366;50.764;7.184;2023-08-06T07:45:03;0.60;;;0.60;;
8656;SDS011;4366;50.764;7.184;2023-08-06T07:50:05;1.07;;;0.70;;
8656;SDS011;4366;50.764;7.184;2023-08-06T07:55:08;0.70;;;0.70;;
8656;SDS011;4366;50.764;7.184;2023-08-06T08:00:09;0.67;;;0.67;;
8656;SDS011;4366;50.764;7.184;2023-08-06T08:05:15;0.83;;;0.83;;
8656;SDS011;4366;50.764;7.184;2023-08-06T08:10:17;0.87;;;0.87;;
8656;SDS011;4366;50.764;7.184;2023-08-06T08:15:18;0.80;;;0.80;;
8656;SDS011;4366;50.764;7.184;2023-08-06T08:20:20;0.50;;;0.50;;
8656;SDS011;4366;50.764;7.184;2023-08-06T08:25:22;0.90;;;0.90;;
8656;SDS011;4366;50.764;7.184;2023-08-06T08:30:24;1.20;;;1.10;;
8656;SDS011;4366;50.764;7.184;2023-08-06T08:35:27;1.17;;;1.17;;
8656;SDS011;4366;50.764;7.184;2023-08-06T08:40:30;0.87;;;0.87;;
8656;SDS011;4366;50.764;7.184;2023-08-06T08:45:34;1.20;;;1.10;;
8656;SDS011;4366;50.764;7.184;2023-08-06T08:50:36;1.20;;;1.20;;
8656;SDS011;4366;50.764;7.184;2023-08-06T08:55:38;1.00;;;1.00;;
8656;SDS011;4366;50.764;7.184;2023-08-06T09:00:45;1.00;;;1.00;;
8656;SDS011;4366;50.764;7.184;2023-08-06T09:05:48;1.60;;;1.20;;
8656;SDS011;4366;50.764;7.184;2023-08-06T09:10:51;1.20;;;1.20;;
8656;SDS011;4366;50.764;7.184;2023-08-06T09:15:53;1.20;;;1.10;;
8656;SDS011;4366;50.764;7.184;2023-08-06T09:20:57;1.43;;;1.40;;
8656;SDS011;4366;50.764;7.184;2023-08-06T09:25:59;1.40;;;1.40;;
8656;SDS011;4366;50.764;7.184;2023-08-06T09:31:01;1.27;;;1.20;;
8656;SDS011;4366;50.764;7.184;2023-08-06T09:36:12;1.10;;;1.10;;
8656;SDS011;4366;50.764;7.184;2023-08-06T09:41:25;1.07;;;1.07;;
8656;SDS011;4366;50.764;7.184;2023-08-06T09:46:29;1.87;;;1.10;;
8656;SDS011;4366;50.764;7.184;2023-08-06T09:51:34;0.20;;;0.20;;
8656;SDS011;4366;50.764;7.184;2023-08-06T09:56:36;0.30;;;0.30;;
8656;SDS011;4366;50.764;7.184;2023-08-06T10:01:39;0.20;;;0.20;;
8656;SDS011;4366;50.764;7.184;2023-08-06T10:06:41;0.20;;;0.20;;
8656;SDS011;4366;50.764;7.184;2023-08-06T10:11:43;0.30;;;0.30;;
8656;SDS011;4366;50.764;7.184;2023-08-06T10:16:52;0.20;;;0.20;;
8656;SDS011;4366;50.764;7.184;2023-08-06T10:22:10;0.33;;;0.33;;
8656;SDS011;4366;50.764;7.184;2023-08-06T10:27:19;0.30;;;0.30;;
8656;SDS011;4366;50.764;7.184;2023-08-06T10:32:25;0.40;;;0.40;;
8656;SDS011;4366;50.764;7.184;2023-08-06T10:37:50;0.40;;;0.40;;
8656;SDS011;4366;50.764;7.184;2023-08-06T10:42:52;0.40;;;0.40;;
8656;SDS011;4366;50.764;7.184;2023-08-06T10:47:54;0.90;;;0.90;;
8656;SDS011;4366;50.764;7.184;2023-08-06T10:52:57;2.40;;;1.10;;
8656;SDS011;4366;50.764;7.184;2023-08-06T10:57:59;1.07;;;1.07;;
8656;SDS011;4366;50.764;7.184;2023-08-06T11:03:01;1.10;;;1.10;;
8656;SDS011;4366;50.764;7.184;2023-08-06T11:08:04;1.13;;;1.07;;
8656;SDS011;4366;50.764;7.184;2023-08-06T11:13:06;2.00;;;1.40;;
8656;SDS011;4366;50.764;7.184;2023-08-06T11:18:09;1.10;;;1.00;;
8656;SDS011;4366;50.764;7.184;2023-08-06T11:23:10;1.53;;;1.20;;
8656;SDS011;4366;50.764;7.184;2023-08-06T11:28:12;1.33;;;1.23;;
8656;SDS011;4366;50.764;7.184;2023-08-06T11:33:14;1.10;;;1.10;;
8656;SDS011;4366;50.764;7.184;2023-08-06T11:38:16;2.13;;;1.17;;
8656;SDS011;4366;50.764;7.184;2023-08-06T11:43:21;0.97;;;0.97;;
8656;SDS011;4366;50.764;7.184;2023-08-06T11:48:26;1.00;;;0.83;;
8656;SDS011;4366;50.764;7.184;2023-08-06T11:53:28;2.10;;;1.30;;
8656;SDS011;4366;50.764;7.184;2023-08-06T11:58:30;3.53;;;1.10;;
8656;SDS011;4366;50.764;7.184;2023-08-06T12:03:32;1.60;;;1.00;;
8656;SDS011;4366;50.764;7.184;2023-08-06T12:08:40;0.73;;;0.73;;
8656;SDS011;4366;50.764;7.184;2023-08-06T12:13:43;1.70;;;0.90;;
8656;SDS011;4366;50.764;7.184;2023-08-06T12:18:45;1.17;;;1.07;;
8656;SDS011;4366;50.764;7.184;2023-08-06T12:23:47;1.73;;;1.07;;
8656;SDS011;4366;50.764;7.184;2023-08-06T12:28:49;4.17;;;1.13;;
8656;SDS011;4366;50.764;7.184;2023-08-06T12:33:51;1.20;;;1.10;;
8656;SDS011;4366;50.764;7.184;2023-08-06T12:38:53;0.93;;;0.93;;
8656;SDS011;4366;50.764;7.184;2023-08-06T12:43:54;0.80;;;0.80;;
8656;SDS011;4366;50.764;7.184;2023-08-06T12:48:56;1.10;;;1.00;;
8656;SDS011;4366;50.764;7.184;2023-08-06T12:53:58;0.90;;;0.90;;
8656;SDS011;4366;50.764;7.184;2023-08-06T12:59:00;0.70;;;0.70;;
8656;SDS011;4366;50.764;7.184;2023-08-06T13:04:02;0.80;;;0.80;;
8656;SDS011;4366;50.764;7.184;2023-08-06T13:09:21;0.90;;;0.90;;
8656;SDS011;4366;50.764;7.184;2023-08-06T13:14:23;0.73;;;0.73;;
8656;SDS011;4366;50.764;7.184;2023-08-06T13:19:25;0.60;;;0.60;;
8656;SDS011;4366;50.764;7.184;2023-08-06T13:24:26;1.47;;;0.63;;
8656;SDS011;4366;50.764;7.184;2023-08-06T13:29:28;0.60;;;0.60;;
8656;SDS011;4366;50.764;7.184;2023-08-06T13:34:30;0.60;;;0.60;;
8656;SDS011;4366;50.764;7.184;2023-08-06T13:39:32;0.50;;;0.50;;
8656;SDS011;4366;50.764;7.184;2023-08-06T13:44:33;0.80;;;0.80;;
8656;SDS011;4366;50.764;7.184;2023-08-06T13:49:37;1.20;;;0.73;;
8656;SDS011;4366;50.764;7.184;2023-08-06T13:54:39;1.13;;;1.10;;
8656;SDS011;4366;50.764;7.184;2023-08-06T13:59:40;1.17;;;1.17;;
8656;SDS011;4366;50.764;7.184;2023-08-06T14:04:42;2.07;;;1.37;;
8656;SDS011;4366;50.764;7.184;2023-08-06T14:09:44;2.03;;;1.30;;
8656;SDS011;4366;50.764;7.184;2023-08-06T14:14:45;1.17;;;1.17;;
8656;SDS011;4366;50.764;7.184;2023-08-06T14:19:47;2.30;;;1.10;;
8656;SDS011;4366;50.764;7.184;2023-08-06T14:24:49;0.90;;;0.90;;
8656;SDS011;4366;50.764;7.184;2023-08-06T14:29:51;0.80;;;0.80;;
8656;SDS011;4366;50.764;7.184;2023-08-06T14:34:52;0.67;;;0.67;;
8656;SDS011;4366;50.764;7.184;2023-08-06T14:39:54;0.67;;;0.67;;
8656;SDS011;4366;50.764;7.184;2023-08-06T14:44:55;1.97;;;0.87;;
8656;SDS011;4366;50.764;7.184;2023-08-06T14:49:57;0.57;;;0.57;;
8656;SDS011;4366;50.764;7.184;2023-08-06T14:55:00;0.60;;;0.60;;
8656;SDS011;4366;50.764;7.184;2023-08-06T15:00:01;0.63;;;0.60;;
8656;SDS011;4366;50.764;7.184;2023-08-06T15:05:03;0.87;;;0.70;;
8656;SDS011;4366;50.764;7.184;2023-08-06T15:10:05;0.57;;;0.53;;
8656;SDS011;4366;50.764;7.184;2023-08-06T15:15:27;0.53;;;0.53;;
8656;SDS011;4366;50.764;7.184;2023-08-06T15:20:30;0.47;;;0.40;;
8656;SDS011;4366;50.764;7.184;2023-08-06T15:25:31;0.30;;;0.30;;
8656;SDS011;4366;50.764;7.184;2023-08-06T15:30:33;0.20;;;0.20;;
8656;SDS011;4366;50.764;7.184;2023-08-06T15:35:35;0.30;;;0.30;;
8656;SDS011;4366;50.764;7.184;2023-08-06T15:40:37;0.20;;;0.20;;
8656;SDS011;4366;50.764;7.184;2023-08-06T15:45:38;0.30;;;0.30;;
8656;SDS011;4366;50.764;7.184;2023-08-06T15:50:40;0.30;;;0.30;;
8656;SDS011;4366;50.764;7.184;2023-08-06T15:55:45;0.40;;;0.40;;
8656;SDS011;4366;50.764;7.184;2023-08-06T16:00:47;0.50;;;0.50;;
8656;SDS011;4366;50.764;7.184;2023-08-06T16:05:49;0.50;;;0.50;;
8656;SDS011;4366;50.764;7.184;2023-08-06T16:10:51;0.40;;;0.40;;
8656;SDS011;4366;50.764;7.184;2023-08-06T16:15:53;0.60;;;0.60;;
8656;SDS011;4366;50.764;7.184;2023-08-06T16:20:54;1.00;;;0.60;;
8656;SDS011;4366;50.764;7.184;2023-08-06T16:25:57;0.50;;;0.50;;
8656;SDS011;4366;50.764;7.184;2023-08-06T16:30:59;0.40;;;0.40;;
8656;SDS011;4366;50.764;7.184;2023-08-06T16:36:01;0.67;;;0.67;;
8656;SDS011;4366;50.764;7.184;2023-08-06T16:41:02;0.87;;;0.87;;
8656;SDS011;4366;50.764;7.184;2023-08-06T16:46:05;1.10;;;1.10;;
8656;SDS011;4366;50.764;7.184;2023-08-06T16:51:07;0.67;;;0.67;;
8656;SDS011;4366;50.764;7.184;2023-08-06T16:56:09;0.70;;;0.70;;
8656;SDS011;4366;50.764;7.184;2023-08-06T17:01:11;1.53;;;0.80;;
8656;SDS011;4366;50.764;7.184;2023-08-06T17:06:13;1.23;;;0.73;;
8656;SDS011;4366;50.764;7.184;2023-08-06T17:11:16;0.67;;;0.67;;
8656;SDS011;4366;50.764;7.184;2023-08-06T17:16:18;0.67;;;0.67;;
8656;SDS011;4366;50.764;7.184;2023-08-06T17:21:20;1.57;;;0.93;;
8656;SDS011;4366;50.764;7.184;2023-08-06T17:26:22;1.80;;;1.27;;
8656;SDS011;4366;50.764;7.184;2023-08-06T17:31:23;0.70;;;0.70;;
8656;SDS011;4366;50.764;7.184;2023-08-06T17:36:26;1.20;;;1.10;;
8656;SDS011;4366;50.764;7.184;2023-08-06T17:41:28;1.00;;;1.00;;
8656;SDS011;4366;50.764;7.184;2023-08-06T17:46:29;0.97;;;0.97;;
8656;SDS011;4366;50.764;7.184;2023-08-06T17:51:31;0.70;;;0.70;;
8656;SDS011;4366;50.764;7.184;2023-08-06T17:56:33;0.70;;;0.70;;
8656;SDS011;4366;50.764;7.184;2023-08-06T18:01:34;0.93;;;0.93;;
8656;SDS011;4366;50.764;7.184;2023-08-06T18:06:36;1.00;;;1.00;;
8656;SDS011;4366;50.764;7.184;2023-08-06T18:11:38;1.27;;;1.20;;
8656;SDS011;4366;50.764;7.184;2023-08-06T18:16:40;1.50;;;1.40;;
8656;SDS011;4366;50.764;7.184;2023-08-06T18:21:42;0.90;;;0.90;;
8656;SDS011;4366;50.764;7.184;2023-08-06T18:26:45;1.00;;;1.00;;
8656;SDS011;4366;50.764;7.184;2023-08-06T18:31:47;0.90;;;0.90;;
8656;SDS011;4366;50.764;7.184;2023-08-06T18:36:48;0.87;;;0.87;;
8656;SDS011;4366;50.764;7.184;2023-08-06T18:41:50;0.87;;;0.87;;
8656;SDS011;4366;50.764;7.184;2023-08-06T18:46:52;1.27;;;0.97;;
8656;SDS011;4366;50.764;7.184;2023-08-06T18:51:54;1.00;;;1.00;;
8656;SDS011;4366;50.764;7.184;2023-08-06T18:56:56;1.07;;;1.00;;
8656;SDS011;4366;50.764;7.184;2023-08-06T19:01:58;0.83;;;0.83;;
8656;SDS011;4366;50.764;7.184;2023-08-06T19:06:59;0.80;;;0.80;;
8656;SDS011;4366;50.764;7.184;2023-08-06T19:12:01;1.10;;;1.00;;
8656;SDS011;4366;50.764;7.184;2023-08-06T19:17:03;1.03;;;0.87;;
8656;SDS011;4366;50.764;7.184;2023-08-06T19:22:05;0.70;;;0.70;;
8656;SDS011;4366;50.764;7.184;2023-08-06T19:27:07;1.23;;;0.70;;
8656;SDS011;4366;50.764;7.184;2023-08-06T19:32:09;1.40;;;1.30;;
8656;SDS011;4366;50.764;7.184;2023-08-06T19:37:11;0.60;;;0.60;;
8656;SDS011;4366;50.764;7.184;2023-08-06T19:42:14;0.73;;;0.73;;
8656;SDS011;4366;50.764;7.184;2023-08-06T19:47:15;1.90;;;0.60;;
8656;SDS011;4366;50.764;7.184;2023-08-06T19:52:17;0.83;;;0.83;;
8656;SDS011;4366;50.764;7.184;2023-08-06T19:57:19;0.97;;;0.77;;
8656;SDS011;4366;50.764;7.184;2023-08-06T20:02:21;0.73;;;0.73;;
8656;SDS011;4366;50.764;7.184;2023-08-06T20:07:24;0.73;;;0.73;;
8656;SDS011;4366;50.764;7.184;2023-08-06T20:12:26;1.43;;;0.80;;
8656;SDS011;4366;50.764;7.184;2023-08-06T20:17:28;1.23;;;1.13;;
8656;SDS011;4366;50.764;7.184;2023-08-06T20:22:29;1.07;;;1.07;;
8656;SDS011;4366;50.764;7.184;2023-08-06T20:27:31;3.07;;;1.30;;
8656;SDS011;4366;50.764;7.184;2023-08-06T20:32:33;1.40;;;1.20;;
8656;SDS011;4366;50.764;7.184;2023-08-06T20:37:34;1.20;;;1.00;;
8656;SDS011;4366;50.764;7.184;2023-08-06T20:42:37;0.90;;;0.90;;
8656;SDS011;4366;50.764;7.184;2023-08-06T20:47:39;1.80;;;1.63;;
8656;SDS011;4366;50.764;7.184;2023-08-06T20:52:41;1.13;;;1.00;;
8656;SDS011;4366;50.764;7.184;2023-08-06T20:57:43;1.33;;;0.80;;
8656;SDS011;4366;50.764;7.184;2023-08-06T21:02:45;2.93;;;1.20;;
8656;SDS011;4366;50.764;7.184;2023-08-06T21:07:46;1.73;;;1.63;;
8656;SDS011;4366;50.764;7.184;2023-08-06T21:12:49;1.00;;;1.00;;
8656;SDS011;4366;50.764;7.184;2023-08-06T21:17:51;0.80;;;0.80;;
8656;SDS011;4366;50.764;7.184;2023-08-06T21:22:52;2.00;;;1.53;;
8656;SDS011;4366;50.764;7.184;2023-08-06T21:27:54;1.80;;;0.80;;
8656;SDS011;4366;50.764;7.184;2023-08-06T21:32:56;1.53;;;1.47;;
8656;SDS011;4366;50.764;7.184;2023-08-06T21:37:58;2.43;;;1.37;;
8656;SDS011;4366;50.764;7.184;2023-08-06T21:42:59;2.20;;;1.40;;
8656;SDS011;4366;50.764;7.184;2023-08-06T21:48:01;2.67;;;1.50;;
8656;SDS011;4366;50.764;7.184;2023-08-06T21:53:03;2.07;;;1.13;;
8656;SDS011;4366;50.764;7.184;2023-08-06T21:58:05;1.53;;;1.10;;
8656;SDS011;4366;50.764;7.184;2023-08-06T22:03:06;1.17;;;1.17;;
8656;SDS011;4366;50.764;7.184;2023-08-06T22:08:08;1.33;;;1.23;;
8656;SDS011;4366;50.764;7.184;2023-08-06T22:13:10;1.07;;;1.07;;
8656;SDS011;4366;50.764;7.184;2023-08-06T22:18:12;2.20;;;1.00;;
8656;SDS011;4366;50.764;7.184;2023-08-06T22:23:14;2.27;;;1.03;;
8656;SDS011;4366;50.764;7.184;2023-08-06T22:28:16;1.30;;;1.20;;
8656;SDS011;4366;50.764;7.184;2023-08-06T22:33:17;1.00;;;1.00;;
8656;SDS011;4366;50.764;7.184;2023-08-06T22:38:20;0.80;;;0.80;;
8656;SDS011;4366;50.764;7.184;2023-08-06T22:43:22;2.57;;;1.20;;
8656;SDS011;4366;50.764;7.184;2023-08-06T22:48:23;3.03;;;1.40;;
8656;SDS011;4366;50.764;7.184;2023-08-06T22:53:26;1.67;;;1.20;;
8656;SDS011;4366;50.764;7.184;2023-08-06T22:58:29;1.37;;;1.20;;
8656;SDS011;4366;50.764;7.184;2023-08-06T23:03:30;1.10;;;1.00;;
8656;SDS011;4366;50.764;7.184;2023-08-06T23:08:32;1.40;;;1.13;;
8656;SDS011;4366;50.764;7.184;2023-08-06T23:13:34;3.63;;;1.50;;
8656;SDS011;4366;50.764;7.184;2023-08-06T23:18:35;5.00;;;1.70;;
8656;SDS011;4366;50.764;7.184;2023-08-06T23:23:37;3.03;;;1.40;;
8656;SDS011;4366;50.764;7.184;2023-08-06T23:28:39;1.27;;;1.20;;
8656;SDS011;4366;50.764;7.184;2023-08-06T23:33:44;1.30;;;1.20;;
8656;SDS011;4366;50.764;7.184;2023-08-06T23:38:46;2.10;;;1.37;;
8656;SDS011;4366;50.764;7.184;2023-08-06T23:43:47;1.40;;;1.30;;
8656;SDS011;4366;50.764;7.184;2023-08-06T23:48:50;1.37;;;1.27;;
8656;SDS011;4366;50.764;7.184;2023-08-06T23:53:52;2.23;;;1.40;;
8656;SDS011;4366;50.764;7.184;2023-08-06T23:58:53;3.33;;;1.53;;
